Alma, IL (62807)

02:47 AM CDT del 04 Settembre 2015 (GMT -0500)
Alma Weather Station | | Change Station
CLOSE
Current Station
Stazione meteo personale
Location: Alma, IL
Altitudine: 595 ft
Stazioni meteo nelle vicinanze

Alt. 595 ft 38.71 °N, 88.91 °W | Updated 7 seconds ago

Sereno
Sereno
70.9 °F
Sembra 70.9 °F
N
0.0
Vento Variabile Vento da SSO
Gusts 0.0 mph

Oggi
Massima -- | Minima -- °F
--% Possibilità di precip.
Ieri
Massima -- | Minima -- °F
Precip. -- in
6:27 AM 7:21 PM
Gobba a levante, 62% visible
Pressione 29.97 in
Visibilità 7.0 miglia
Nuvole Sereno
Punto di rugiada 68 °F
Umidità 92%
Piovosità 0.00 in
Spessore del manto nevoso Non disponibile.
Raggi UV 0 fuori da 12
Polline 11.20 fuori da 12
Qualità dell'aria Non disponibile.
Flu Activity Non disponibile.
METAR KSLO 040735Z AUTO 00000KT 7SM CLR 21/19 A2997 RMK AO2 T02080194
Pressione 29.97 in
Visibilità 7.0 miglia
Nuvole Sereno
Punto di rugiada 68 °F
Umidità 92%
Piovosità 0.00 in
Spessore del manto nevoso Non disponibile.
Raggi UV 0 fuori da 12
Polline 11.20 fuori da 12
Qualità dell'aria Non disponibile.
Flu Activity Non disponibile.
METAR KSLO 040735Z AUTO 00000KT 7SM CLR 21/19 A2997 RMK AO2 T02080194

10-Day Weather Forecast

×

Almanac

Astronomia

Sep. 04, 2015 Alba Tramonto
Ora attuale
Crepuscolo civile
Crepuscolo nautico
Crepuscolo astronomico
Luna
Estensione della luce visibile
Lunghezza del giorno
Tomorrow will be .
, % of the Moon is Illuminated

Gli estremi di oggi

State Highs State Lows

Community

WunderPhotos

Upload Photos

1,852,132 foto caricate!

WunderBlogs® & News

Nearby

Qualità dell'aria

  Qualità dell'aria Indice AQ Inquinante
Not available.

Profondità neve

Stazione Profondità Altitudine

Attività sismica

Città  Distanza Mag. Data & Ora
Minimo Magnitudo Mostrato è 2.5.

Temperature delle acque costiere

Località Temperatura

Stations

Stazioni meteo nelle vicinanze

Ubicazione della stazione Temp. Raffreddamento del vento Punto di rugiada Umidità Vento Precip. Alt. Aggiornato Tipo